Time;durP1;ratioP1;P1;durP2;ratioP2;P2;SDS_P1;SDS_P2;PMS_P1;PMS_P2;Temp;Humidity;BMP_temperature;BMP_pressure;BME280_temperature;BME280_humidity;BME280_pressure;Samples;Min_cycle;Max_cycle;Signal;HPM_P1;HPM_P2
2021/08/17 00:35:52;;;;;;;8.57;6.73;;;11.50;99.90;;;;;;5962326;23;20204;-85
2021/08/17 00:38:21;;;;;;;10.10;6.50;;;11.60;99.90;;;;;;6045888;23;20545;-84
2021/08/17 00:40:47;;;;;;;10.77;7.30;;;11.50;99.90;;;;;;6101197;23;20461;-85
2021/08/17 00:43:16;;;;;;;10.57;7.20;;;11.60;99.90;;;;;;6204260;23;20472;-85
2021/08/17 00:45:55;;;;;;;9.47;7.43;;;11.60;99.90;;;;;;6206698;23;20441;-85
2021/08/17 01:15:14;;;;;;;9.13;6.10;;;11.30;99.90;;;;;;5811482;24;20419;-85
2021/08/17 01:20:42;;;;;;;9.95;6.00;;;11.30;99.90;;;;;;6084634;23;20445;-84
2021/08/17 01:23:08;;;;;;;7.00;5.33;;;11.20;99.90;;;;;;6173911;23;20183;-85
2021/08/17 01:25:40;;;;;;;9.30;6.53;;;11.10;99.90;;;;;;6205638;23;20427;-85
2021/08/17 01:28:08;;;;;;;10.20;6.73;;;11.10;99.90;;;;;;6207719;23;20396;-84
2021/08/17 01:30:34;;;;;;;9.43;5.37;;;11.00;99.90;;;;;;6208571;23;20451;-83
2021/08/17 01:33:04;;;;;;;14.70;6.20;;;10.90;99.90;;;;;;6206361;23;20400;-84
2021/08/17 01:35:34;;;;;;;9.70;6.20;;;11.00;99.90;;;;;;6204655;23;20420;-83
2021/08/17 01:38:03;;;;;;;7.50;5.13;;;10.90;99.90;;;;;;6204886;23;20437;-84
2021/08/17 01:40:42;;;;;;;8.23;4.70;;;10.90;99.90;;;;;;6203781;23;20447;-85
2021/08/17 01:43:24;;;;;;;7.00;4.90;;;10.80;99.90;;;;;;6201899;23;20411;-84
2021/08/17 02:08:26;;;;;;;;;;;;;;;;;;;;;
2021/08/17 03:50:24;;;;;;;7.03;4.93;;;10.80;99.90;;;;;;6141788;23;20558;-85
2021/08/17 03:52:58;;;;;;;6.80;5.17;;;10.80;99.90;;;;;;6186747;23;20467;-85
2021/08/17 03:55:27;;;;;;;9.37;6.20;;;10.80;99.90;;;;;;6187491;23;20439;-85
2021/08/17 03:57:57;;;;;;;6.73;5.20;;;10.80;99.90;;;;;;6187635;23;20400;-84
2021/08/17 04:00:32;;;;;;;7.60;4.93;;;10.80;99.90;;;;;;6186644;23;20448;-85
2021/08/17 05:30:49;;;;;;;12.53;6.60;;;10.60;99.90;;;;;;5814516;24;20579;-85
2021/08/17 05:36:10;;;;;;;9.83;6.30;;;10.70;99.90;;;;;;6161132;23;20970;-85
2021/08/17 06:34:21;;;;;;;7.87;5.70;;;12.30;99.90;;;;;;5890364;24;20423;-85
2021/08/17 06:36:48;;;;;;;5.63;5.10;;;12.40;99.90;;;;;;6032286;23;20437;-85
2021/08/17 06:39:16;;;;;;;6.10;5.50;;;12.40;99.90;;;;;;6168730;23;20828;-85
2021/08/17 06:41:45;;;;;;;6.10;5.00;;;12.60;99.90;;;;;;6188884;23;20819;-85
2021/08/17 06:44:11;;;;;;;8.70;6.10;;;12.60;99.90;;;;;;6188919;23;20414;-85
2021/08/17 06:46:41;;;;;;;8.93;5.87;;;12.70;99.90;;;;;;6188739;23;20441;-85
2021/08/17 06:49:08;;;;;;;5.27;4.47;;;12.70;99.90;;;;;;6189118;23;20752;-85
2021/08/17 06:51:38;;;;;;;7.90;5.73;;;12.80;99.90;;;;;;6188935;23;20740;-85
2021/08/17 06:54:05;;;;;;;7.90;5.90;;;12.80;99.90;;;;;;6189696;23;20401;-85
2021/08/17 06:56:32;;;;;;;6.33;5.70;;;12.80;99.90;;;;;;6190567;23;20905;-85
2021/08/17 06:58:59;;;;;;;11.43;7.60;;;12.90;99.90;;;;;;6190970;23;20770;-85
2021/08/17 07:01:26;;;;;;;6.90;5.13;;;13.00;99.90;;;;;;6190946;23;20410;-85
2021/08/17 07:03:52;;;;;;;9.03;5.63;;;13.00;99.90;;;;;;6190715;23;20413;-85
2021/08/17 07:06:19;;;;;;;6.73;5.80;;;13.10;99.90;;;;;;6190488;23;20750;-85
2021/08/17 07:08:47;;;;;;;7.80;5.60;;;13.10;99.90;;;;;;6191267;23;20416;-85
2021/08/17 07:11:14;;;;;;;7.77;5.40;;;13.20;99.90;;;;;;6190723;23;20410;-85
2021/08/17 07:13:41;;;;;;;6.97;5.50;;;13.30;99.90;;;;;;6190965;23;20409;-85
2021/08/17 07:16:07;;;;;;;8.73;5.70;;;13.20;99.90;;;;;;6191561;23;20443;-85
2021/08/17 07:18:35;;;;;;;10.53;6.17;;;13.10;99.90;;;;;;6190993;23;20747;-85
2021/08/17 07:21:01;;;;;;;7.80;6.10;;;13.00;99.90;;;;;;6190583;23;20414;-85
2021/08/17 07:23:28;;;;;;;8.03;6.63;;;13.00;99.90;;;;;;6190672;23;20393;-84
2021/08/17 07:25:57;;;;;;;7.07;6.33;;;13.10;99.90;;;;;;6191292;23;20437;-84
2021/08/17 07:28:25;;;;;;;11.80;6.83;;;13.20;99.90;;;;;;6189928;23;20405;-85
2021/08/17 07:30:51;;;;;;;7.13;6.17;;;13.40;99.90;;;;;;6190564;23;20740;-84
2021/08/17 07:33:18;;;;;;;9.40;6.30;;;13.60;99.90;;;;;;6190170;23;20960;-85
2021/08/17 07:35:45;;;;;;;8.13;6.50;;;13.70;99.90;;;;;;6190533;23;20426;-84
2021/08/17 07:38:12;;;;;;;8.90;6.13;;;13.70;99.90;;;;;;6190586;23;20969;-84
2021/08/17 07:40:38;;;;;;;8.17;6.60;;;13.90;99.90;;;;;;6191926;23;20414;-85
2021/08/17 07:43:07;;;;;;;8.20;6.07;;;13.90;99.90;;;;;;6190432;23;20783;-84
2021/08/17 07:45:34;;;;;;;6.53;5.63;;;13.90;99.90;;;;;;6190269;23;20429;-84
2021/08/17 07:48:01;;;;;;;6.93;6.00;;;14.20;99.90;;;;;;6190134;23;20417;-87
2021/08/17 07:50:27;;;;;;;8.00;5.67;;;14.30;99.90;;;;;;6190984;23;20410;-84
2021/08/17 07:52:54;;;;;;;7.60;6.30;;;14.20;99.90;;;;;;6190085;23;20445;-84
2021/08/17 07:55:21;;;;;;;9.60;5.10;;;14.10;99.90;;;;;;6189451;23;20433;-84
2021/08/17 07:57:48;;;;;;;8.00;6.10;;;14.30;99.90;;;;;;6189983;23;20414;-84
2021/08/17 08:00:17;;;;;;;6.67;6.03;;;14.40;99.90;;;;;;6189967;23;20418;-86
2021/08/17 08:02:44;;;;;;;7.20;5.80;;;14.60;99.90;;;;;;6189707;23;20414;-84
2021/08/17 08:05:11;;;;;;;7.57;4.93;;;14.90;99.90;;;;;;6190186;23;20441;-84
2021/08/17 08:07:38;;;;;;;5.43;4.83;;;14.80;99.90;;;;;;6190111;23;20410;-84
2021/08/17 08:10:05;;;;;;;7.30;5.87;;;14.90;99.90;;;;;;6190602;23;20898;-84
2021/08/17 08:12:32;;;;;;;7.37;5.50;;;15.10;99.90;;;;;;6189862;23;20449;-84
2021/08/17 08:14:59;;;;;;;4.50;3.80;;;15.20;99.90;;;;;;6189553;23;20517;-84
2021/08/17 08:17:27;;;;;;;6.63;5.87;;;15.30;99.90;;;;;;6189168;23;20511;-84
2021/08/17 08:19:54;;;;;;;5.87;5.23;;;15.10;99.90;;;;;;6189485;23;20893;-85
2021/08/17 08:22:21;;;;;;;13.53;5.20;;;15.10;99.90;;;;;;6189387;23;20421;-84
2021/08/17 08:24:48;;;;;;;6.97;5.17;;;15.00;99.90;;;;;;6189764;23;20440;-84
2021/08/17 08:27:15;;;;;;;7.83;5.90;;;14.80;99.90;;;;;;6189664;23;20410;-83
2021/08/17 08:29:43;;;;;;;8.00;6.40;;;14.90;99.90;;;;;;6189768;23;20428;-83
2021/08/17 08:32:10;;;;;;;7.20;5.77;;;15.20;99.90;;;;;;6188979;23;20460;-84
2021/08/17 08:34:39;;;;;;;5.17;4.27;;;15.30;99.90;;;;;;6188740;23;20429;-84
2021/08/17 08:37:06;;;;;;;4.97;4.47;;;15.50;99.90;;;;;;6189322;23;20417;-84
2021/08/17 08:39:33;;;;;;;8.33;5.87;;;15.80;99.90;;;;;;6188472;23;20417;-84
2021/08/17 08:42:01;;;;;;;5.87;5.27;;;16.00;99.90;;;;;;6189275;23;20441;-84
2021/08/17 08:44:30;;;;;;;7.80;5.40;;;15.90;99.90;;;;;;6188215;23;20955;-84
2021/08/17 08:46:59;;;;;;;7.03;6.33;;;15.90;99.90;;;;;;6189514;23;20422;-84
2021/08/17 08:49:27;;;;;;;6.17;5.30;;;16.10;99.90;;;;;;6189367;23;20929;-86
2021/08/17 08:51:55;;;;;;;7.07;5.10;;;16.30;99.90;;;;;;6189107;23;20753;-84
2021/08/17 08:54:22;;;;;;;5.33;4.80;;;16.20;99.90;;;;;;6189536;23;20413;-83
2021/08/17 08:56:51;;;;;;;6.00;4.47;;;16.20;99.90;;;;;;6188917;23;20765;-85
2021/08/17 08:59:18;;;;;;;5.23;4.40;;;16.00;99.90;;;;;;6189265;23;20413;-85
2021/08/17 09:01:47;;;;;;;8.73;6.27;;;16.20;99.90;;;;;;6189217;23;20419;-85
2021/08/17 09:04:15;;;;;;;6.70;5.43;;;16.10;99.90;;;;;;6189474;23;20417;-85
2021/08/17 09:06:52;;;;;;;8.30;6.80;;;15.80;99.90;;;;;;6189084;23;20490;-85
2021/08/17 09:09:22;;;;;;;6.60;5.20;;;15.80;99.90;;;;;;6188966;23;20398;-85
2021/08/17 09:11:52;;;;;;;5.80;5.20;;;15.80;99.90;;;;;;6188374;23;20391;-85
2021/08/17 09:14:22;;;;;;;9.27;6.67;;;16.00;99.90;;;;;;6188578;23;20415;-85
2021/08/17 09:16:53;;;;;;;6.50;5.60;;;16.10;99.90;;;;;;6188339;23;20437;-85
2021/08/17 09:19:28;;;;;;;5.90;5.27;;;16.00;99.90;;;;;;6189169;23;20473;-84
2021/08/17 09:21:57;;;;;;;6.50;5.27;;;16.00;99.90;;;;;;6187949;23;20423;-85
2021/08/17 09:24:27;;;;;;;6.53;4.80;;;16.00;99.90;;;;;;6189733;23;20415;-85
2021/08/17 09:26:56;;;;;;;9.60;6.53;;;16.00;99.90;;;;;;6190057;23;20736;-84
2021/08/17 09:29:25;;;;;;;5.50;4.60;;;15.90;99.90;;;;;;6189546;23;20420;-85
2021/08/17 09:31:54;;;;;;;4.73;4.07;;;16.00;99.90;;;;;;6188730;23;20421;-84
2021/08/17 09:34:28;;;;;;;5.07;4.43;;;16.30;99.90;;;;;;6189730;23;20442;-84
2021/08/17 09:36:55;;;;;;;6.77;4.63;;;16.40;99.90;;;;;;6189845;23;20387;-85
2021/08/17 09:39:31;;;;;;;7.73;4.80;;;16.40;99.90;;;;;;6189246;23;20403;-85
2021/08/17 09:42:13;;;;;;;6.77;5.07;;;16.60;99.90;;;;;;6189074;23;20394;-85
2021/08/17 09:44:40;;;;;;;8.70;5.93;;;16.60;99.90;;;;;;6189947;23;20418;-85
2021/08/17 09:47:11;;;;;;;5.50;5.00;;;16.40;99.90;;;;;;6189192;23;20414;-85
2021/08/17 09:49:38;;;;;;;7.43;4.60;;;16.30;99.90;;;;;;6189087;23;20400;-85
2021/08/17 09:52:13;;;;;;;4.90;4.40;;;16.30;99.90;;;;;;6190342;23;20895;-85
2021/08/17 09:54:43;;;;;;;6.43;5.07;;;16.50;99.90;;;;;;6190350;23;20395;-85
2021/08/17 09:57:10;;;;;;;5.53;4.93;;;16.80;99.90;;;;;;6189432;23;20422;-85
2021/08/17 09:59:39;;;;;;;5.77;4.53;;;16.90;99.90;;;;;;6189749;23;20428;-85
2021/08/17 10:02:06;;;;;;;5.00;4.00;;;17.00;99.90;;;;;;6189813;23;20416;-86
2021/08/17 10:04:35;;;;;;;5.90;4.23;;;17.40;99.60;;;;;;6188814;23;20426;-85
2021/08/17 10:07:03;;;;;;;5.93;4.97;;;17.60;99.90;;;;;;6188964;23;20409;-86
2021/08/17 10:09:31;;;;;;;4.83;4.33;;;17.60;99.00;;;;;;6189864;23;20410;-85
2021/08/17 10:11:59;;;;;;;4.53;3.57;;;17.90;99.10;;;;;;6191440;23;20423;-85
2021/08/17 10:14:26;;;;;;;7.47;5.63;;;17.90;98.30;;;;;;6196618;23;20448;-85
2021/08/17 10:16:53;;;;;;;4.63;3.63;;;17.70;97.80;;;;;;6194634;23;20416;-85
2021/08/17 10:19:24;;;;;;;5.20;4.70;;;17.50;97.80;;;;;;6191316;23;20812;-86
2021/08/17 10:21:53;;;;;;;4.60;3.50;;;17.40;98.50;;;;;;6189730;23;20425;-86
2021/08/17 10:24:29;;;;;;;4.13;3.60;;;17.40;97.40;;;;;;6189704;23;20413;-86
2021/08/17 10:27:25;;;;;;;4.53;4.10;;;17.40;97.30;;;;;;6190305;23;20436;-86
2021/08/17 10:30:10;;;;;;;4.40;3.83;;;17.20;97.70;;;;;;6188538;23;20416;-86
2021/08/17 10:32:47;;;;;;;5.03;3.77;;;17.30;96.30;;;;;;6187376;23;20533;-86
2021/08/17 10:35:53;;;;;;;3.67;2.90;;;17.40;96.60;;;;;;6191220;23;20435;-86
2021/08/17 10:38:50;;;;;;;3.07;2.77;;;17.60;93.50;;;;;;6191082;23;20399;-86
2021/08/17 10:41:41;;;;;;;3.43;3.10;;;17.60;95.30;;;;;;6189954;23;20500;-87
2021/08/17 10:44:31;;;;;;;3.33;2.73;;;17.40;94.20;;;;;;6161476;23;20431;-86
2021/08/17 13:41:00;;;;;;;;;;;;;;;;;;;;;
2021/08/17 13:47:16;;;;;;;5.60;4.20;;;21.70;66.70;;;;;;6114207;23;20457;-83
2021/08/17 13:50:40;;;;;;;;;;;;;;;;;;;;;
2021/08/17 14:00:15;;;;;;;5.77;4.87;;;20.60;69.50;;;;;;5922012;24;20442;-83
2021/08/17 14:02:42;;;;;;;4.00;3.60;;;20.60;69.40;;;;;;6081686;23;20422;-83
2021/08/17 14:05:12;;;;;;;5.30;4.80;;;20.50;70.50;;;;;;6113569;23;20432;-83
2021/08/17 14:11:41;;;;;;;;;;;;;;;;;;;;;
2021/08/17 14:21:06;;;;;;;4.07;3.70;;;21.10;68.10;;;;;;6092846;23;20433;-86
2021/08/17 14:23:57;;;;;;;6.50;4.13;;;20.90;69.80;;;;;;6111164;23;20703;-86
2021/08/17 14:26:26;;;;;;;5.53;4.60;;;20.70;70.80;;;;;;6105543;23;20451;-86
2021/08/17 14:28:54;;;;;;;4.93;4.40;;;20.70;70.30;;;;;;6111164;23;20495;-86
2021/08/17 14:31:22;;;;;;;5.70;5.13;;;20.70;70.50;;;;;;6111284;23;20491;-86
2021/08/17 14:33:49;;;;;;;5.70;4.63;;;20.70;70.80;;;;;;6110423;23;20456;-86
2021/08/17 14:36:18;;;;;;;5.17;3.90;;;20.70;70.20;;;;;;6111024;23;20450;-86
2021/08/17 14:38:46;;;;;;;5.40;4.10;;;20.60;70.70;;;;;;6111775;23;20417;-83
2021/08/17 14:41:14;;;;;;;7.03;4.80;;;20.30;72.60;;;;;;6111778;23;20841;-87
2021/08/17 14:43:41;;;;;;;5.00;4.50;;;20.30;72.90;;;;;;6110656;23;20476;-86
2021/08/17 14:46:08;;;;;;;6.40;4.87;;;20.20;72.80;;;;;;6112006;23;20445;-86
2021/08/17 14:48:35;;;;;;;5.00;4.50;;;20.10;75.50;;;;;;6111318;23;20420;-86
2021/08/17 14:51:01;;;;;;;4.57;4.17;;;19.90;73.70;;;;;;6110277;23;20491;-86
2021/08/17 14:53:29;;;;;;;6.00;5.00;;;19.90;73.80;;;;;;6110880;23;20452;-86
2021/08/17 14:55:56;;;;;;;5.80;5.20;;;19.80;74.50;;;;;;6111814;23;20437;-85
2021/08/17 14:58:23;;;;;;;5.97;4.93;;;19.80;76.30;;;;;;6113030;23;20414;-84
2021/08/17 15:00:50;;;;;;;5.77;5.10;;;19.70;74.90;;;;;;6112971;23;20489;-85
2021/08/17 15:03:16;;;;;;;6.33;5.00;;;19.70;76.80;;;;;;6113297;23;20480;-84
2021/08/17 15:05:43;;;;;;;6.27;4.60;;;19.70;76.00;;;;;;6112329;23;20432;-85
2021/08/17 15:08:10;;;;;;;6.30;4.90;;;19.70;76.40;;;;;;6113368;23;20443;-85
2021/08/17 15:11:09;;;;;;;;;;;;;;;;;;;;;
2021/08/17 15:13:48;;;;;;;5.07;4.47;;;19.80;76.90;;;;;;6104401;23;20476;-85
2021/08/17 15:16:41;;;;;;;4.17;3.77;;;19.90;76.70;;;;;;6114494;23;20428;-85
2021/08/17 15:20:01;;;;;;;6.03;4.73;;;20.00;77.60;;;;;;6116539;23;20389;-85
2021/08/17 15:23:30;;;;;;;;;;;;;;;;;;;;;
2021/08/17 15:26:47;;;;;;;;;;;;;;;;;;;;;
2021/08/17 15:29:55;;;;;;;5.97;5.37;;;19.40;77.70;;;;;;5913076;23;20465;-85
2021/08/17 15:38:38;;;;;;;4.43;4.03;;;18.70;80.50;;;;;;5926392;24;20422;-85
2021/08/17 15:41:56;;;;;;;5.90;5.40;;;18.60;82.80;;;;;;5948016;24;20191;-84
2021/08/17 15:48:04;;;;;;;;;;;;;;;;;;;;;
2021/08/17 15:51:01;;;;;;;6.87;4.90;;;18.60;83.10;;;;;;6027819;23;20428;-85
2021/08/17 15:54:07;;;;;;;;;;;;;;;;;;;;;
2021/08/17 16:59:50;;;;;;;8.67;6.40;;;17.40;91.40;;;;;;5757138;24;20422;-84
2021/08/17 17:08:37;;;;;;;;;;;;;;;;;;;;;
2021/08/17 17:44:46;;;;;;;8.37;6.60;;;16.80;94.80;;;;;;5777846;24;20419;-84
2021/08/17 17:47:13;;;;;;;8.80;8.00;;;16.80;94.70;;;;;;5842812;24;20430;-84
2021/08/17 17:49:40;;;;;;;7.40;6.53;;;16.70;95.10;;;;;;5979713;23;20406;-84
2021/08/17 17:52:07;;;;;;;10.40;8.30;;;16.70;95.40;;;;;;6109922;23;20484;-85
2021/08/17 17:54:34;;;;;;;10.93;7.57;;;16.70;95.70;;;;;;6109139;23;20509;-84
2021/08/17 17:57:01;;;;;;;8.60;7.07;;;16.60;95.90;;;;;;6110305;23;20497;-84
2021/08/17 17:59:27;;;;;;;8.93;7.77;;;16.60;96.00;;;;;;6108883;23;20496;-85
2021/08/17 18:01:57;;;;;;;9.20;6.43;;;16.60;96.20;;;;;;6116560;23;20501;-84
2021/08/17 18:04:23;;;;;;;8.00;6.93;;;16.50;96.30;;;;;;6118788;23;20901;-84
2021/08/17 18:06:52;;;;;;;9.50;8.10;;;16.50;96.20;;;;;;6111707;23;20429;-85
2021/08/17 18:09:19;;;;;;;8.50;7.33;;;16.50;96.50;;;;;;6108569;23;20419;-84
2021/08/17 18:11:45;;;;;;;9.50;7.57;;;16.50;96.70;;;;;;6108404;23;20416;-84
2021/08/17 18:14:13;;;;;;;10.90;7.80;;;16.50;96.90;;;;;;6108456;23;20516;-84
2021/08/17 18:16:39;;;;;;;8.20;7.40;;;16.40;97.00;;;;;;6109006;23;20480;-84
2021/08/17 18:19:08;;;;;;;10.60;8.93;;;16.40;97.10;;;;;;6108626;23;20493;-84
2021/08/17 18:21:35;;;;;;;8.33;7.07;;;16.50;97.20;;;;;;6109050;23;20446;-84
2021/08/17 18:24:03;;;;;;;11.37;9.00;;;16.60;97.10;;;;;;6108376;23;20418;-84
2021/08/17 18:26:30;;;;;;;9.00;7.00;;;16.60;97.10;;;;;;6108249;23;20434;-84
2021/08/17 18:28:58;;;;;;;12.43;9.50;;;16.60;97.40;;;;;;6109720;23;20429;-85
2021/08/17 18:31:25;;;;;;;9.50;8.57;;;16.60;98.00;;;;;;6111161;23;20421;-85
2021/08/17 18:33:55;;;;;;;8.03;7.20;;;16.60;99.20;;;;;;6111247;23;21140;-85
